Airport ICAO


19:55 UTC

15°C

Clear skies


An affordable passengers' Moving Map for your aircraft. Made for the iPad and the iPhone
More information here

LFMD Mandelieu


Cannes FRANCE   VFR CAVOK


METAR LFMD 091930Z AUTO 31014G25KT 280V340 CAVOK 15/M01 Q1015 BECMG 30020KT 0h25min

TAF LFMD 091400Z 0915/1015 30020KT CAVOK TEMPO 0915/0916 27030G45KT BECMG 0917/0919 30020KT BECMG 1007/1009 27015KT BECMG 1013/1015 09010KT 5h55min





NOTAMS

OPEN